sensor_id;sensor_type;location;lat;lon;timestamp;P1;durP1;ratioP1;P2;durP2;ratioP2
15073;SDS011;7636;63.884;20.308;2023-01-24T00:00:33;6.93;;;2.70;;
15073;SDS011;7636;63.884;20.308;2023-01-24T00:03:00;6.10;;;2.30;;
15073;SDS011;7636;63.884;20.308;2023-01-24T00:05:27;7.23;;;2.60;;
15073;SDS011;7636;63.884;20.308;2023-01-24T00:07:54;5.23;;;2.60;;
15073;SDS011;7636;63.884;20.308;2023-01-24T00:10:20;3.20;;;2.23;;
15073;SDS011;7636;63.884;20.308;2023-01-24T00:12:48;5.33;;;2.30;;
15073;SDS011;7636;63.884;20.308;2023-01-24T00:15:15;5.67;;;2.83;;
15073;SDS011;7636;63.884;20.308;2023-01-24T00:17:42;4.90;;;2.57;;
15073;SDS011;7636;63.884;20.308;2023-01-24T00:20:08;5.80;;;2.33;;
15073;SDS011;7636;63.884;20.308;2023-01-24T00:22:35;6.30;;;2.47;;
15073;SDS011;7636;63.884;20.308;2023-01-24T00:25:02;5.73;;;1.90;;
15073;SDS011;7636;63.884;20.308;2023-01-24T00:27:29;4.57;;;2.33;;
15073;SDS011;7636;63.884;20.308;2023-01-24T00:29:57;7.13;;;2.63;;
15073;SDS011;7636;63.884;20.308;2023-01-24T00:32:24;6.57;;;2.57;;
15073;SDS011;7636;63.884;20.308;2023-01-24T00:34:51;5.20;;;2.20;;
15073;SDS011;7636;63.884;20.308;2023-01-24T00:37:18;4.00;;;2.10;;
15073;SDS011;7636;63.884;20.308;2023-01-24T00:39:44;4.53;;;1.90;;
15073;SDS011;7636;63.884;20.308;2023-01-24T00:42:11;4.83;;;2.03;;
15073;SDS011;7636;63.884;20.308;2023-01-24T00:44:37;5.87;;;2.33;;
15073;SDS011;7636;63.884;20.308;2023-01-24T00:47:04;4.63;;;2.10;;
15073;SDS011;7636;63.884;20.308;2023-01-24T00:49:31;4.93;;;2.17;;
15073;SDS011;7636;63.884;20.308;2023-01-24T00:51:57;5.67;;;2.30;;
15073;SDS011;7636;63.884;20.308;2023-01-24T00:54:24;4.27;;;2.20;;
15073;SDS011;7636;63.884;20.308;2023-01-24T00:56:50;6.13;;;2.20;;
15073;SDS011;7636;63.884;20.308;2023-01-24T00:59:17;6.00;;;2.00;;
15073;SDS011;7636;63.884;20.308;2023-01-24T01:01:44;4.07;;;1.80;;
15073;SDS011;7636;63.884;20.308;2023-01-24T01:04:10;3.63;;;2.17;;
15073;SDS011;7636;63.884;20.308;2023-01-24T01:06:39;8.63;;;2.10;;
15073;SDS011;7636;63.884;20.308;2023-01-24T01:09:05;4.47;;;1.77;;
15073;SDS011;7636;63.884;20.308;2023-01-24T01:11:32;2.67;;;1.80;;
15073;SDS011;7636;63.884;20.308;2023-01-24T01:13:59;2.47;;;1.50;;
15073;SDS011;7636;63.884;20.308;2023-01-24T01:16:25;2.83;;;1.73;;
15073;SDS011;7636;63.884;20.308;2023-01-24T01:18:53;4.07;;;1.77;;
15073;SDS011;7636;63.884;20.308;2023-01-24T01:21:21;2.90;;;1.60;;
15073;SDS011;7636;63.884;20.308;2023-01-24T01:23:48;3.70;;;1.83;;
15073;SDS011;7636;63.884;20.308;2023-01-24T01:26:16;3.53;;;1.77;;
15073;SDS011;7636;63.884;20.308;2023-01-24T01:28:44;3.67;;;1.60;;
15073;SDS011;7636;63.884;20.308;2023-01-24T01:31:11;4.03;;;1.80;;
15073;SDS011;7636;63.884;20.308;2023-01-24T01:33:38;5.80;;;1.70;;
15073;SDS011;7636;63.884;20.308;2023-01-24T01:36:05;4.63;;;1.73;;
15073;SDS011;7636;63.884;20.308;2023-01-24T01:38:32;3.07;;;1.67;;
15073;SDS011;7636;63.884;20.308;2023-01-24T01:40:59;3.93;;;1.40;;
15073;SDS011;7636;63.884;20.308;2023-01-24T01:43:27;2.53;;;1.50;;
15073;SDS011;7636;63.884;20.308;2023-01-24T01:45:57;6.07;;;1.90;;
15073;SDS011;7636;63.884;20.308;2023-01-24T01:48:34;2.67;;;1.60;;
15073;SDS011;7636;63.884;20.308;2023-01-24T01:51:22;3.10;;;1.40;;
15073;SDS011;7636;63.884;20.308;2023-01-24T01:59:02;2.53;;;1.23;;
15073;SDS011;7636;63.884;20.308;2023-01-24T02:01:33;3.73;;;1.20;;
15073;SDS011;7636;63.884;20.308;2023-01-24T02:04:03;7.50;;;1.50;;
15073;SDS011;7636;63.884;20.308;2023-01-24T02:09:01;2.10;;;1.30;;
15073;SDS011;7636;63.884;20.308;2023-01-24T02:11:30;4.27;;;1.60;;
15073;SDS011;7636;63.884;20.308;2023-01-24T02:14:10;4.10;;;1.20;;
15073;SDS011;7636;63.884;20.308;2023-01-24T02:16:56;2.40;;;1.50;;
15073;SDS011;7636;63.884;20.308;2023-01-24T02:19:27;3.73;;;1.50;;
15073;SDS011;7636;63.884;20.308;2023-01-24T02:21:56;2.60;;;1.37;;
15073;SDS011;7636;63.884;20.308;2023-01-24T02:24:32;5.43;;;1.30;;
15073;SDS011;7636;63.884;20.308;2023-01-24T02:27:03;3.57;;;1.67;;
15073;SDS011;7636;63.884;20.308;2023-01-24T02:29:29;5.33;;;1.50;;
15073;SDS011;7636;63.884;20.308;2023-01-24T02:31:57;2.27;;;1.30;;
15073;SDS011;7636;63.884;20.308;2023-01-24T02:34:25;2.43;;;1.30;;
15073;SDS011;7636;63.884;20.308;2023-01-24T02:36:54;2.80;;;1.33;;
15073;SDS011;7636;63.884;20.308;2023-01-24T02:39:25;4.00;;;1.50;;
15073;SDS011;7636;63.884;20.308;2023-01-24T02:41:59;3.63;;;1.37;;
15073;SDS011;7636;63.884;20.308;2023-01-24T02:47:06;5.90;;;1.53;;
15073;SDS011;7636;63.884;20.308;2023-01-24T02:49:32;4.30;;;0.90;;
15073;SDS011;7636;63.884;20.308;2023-01-24T02:51:59;3.97;;;1.27;;
15073;SDS011;7636;63.884;20.308;2023-01-24T02:54:44;3.27;;;1.37;;
15073;SDS011;7636;63.884;20.308;2023-01-24T02:57:11;3.27;;;1.17;;
15073;SDS011;7636;63.884;20.308;2023-01-24T02:59:55;2.23;;;1.33;;
15073;SDS011;7636;63.884;20.308;2023-01-24T03:02:22;2.17;;;1.40;;
15073;SDS011;7636;63.884;20.308;2023-01-24T03:04:49;3.30;;;1.10;;
15073;SDS011;7636;63.884;20.308;2023-01-24T03:07:15;2.97;;;1.00;;
15073;SDS011;7636;63.884;20.308;2023-01-24T03:09:42;1.80;;;0.97;;
15073;SDS011;7636;63.884;20.308;2023-01-24T03:12:14;3.60;;;1.47;;
15073;SDS011;7636;63.884;20.308;2023-01-24T03:15:00;3.03;;;1.70;;
15073;SDS011;7636;63.884;20.308;2023-01-24T03:17:45;4.13;;;1.43;;
15073;SDS011;7636;63.884;20.308;2023-01-24T03:20:30;5.10;;;1.37;;
15073;SDS011;7636;63.884;20.308;2023-01-24T03:23:15;2.70;;;1.20;;
15073;SDS011;7636;63.884;20.308;2023-01-24T03:26:01;5.23;;;1.20;;
15073;SDS011;7636;63.884;20.308;2023-01-24T03:28:46;2.20;;;1.00;;
15073;SDS011;7636;63.884;20.308;2023-01-24T03:31:31;2.57;;;1.00;;
15073;SDS011;7636;63.884;20.308;2023-01-24T03:34:16;2.60;;;1.30;;
15073;SDS011;7636;63.884;20.308;2023-01-24T03:37:02;1.63;;;0.80;;
15073;SDS011;7636;63.884;20.308;2023-01-24T03:39:29;2.87;;;1.23;;
15073;SDS011;7636;63.884;20.308;2023-01-24T04:41:33;1.53;;;0.90;;
15073;SDS011;7636;63.884;20.308;2023-01-24T04:43:59;0.90;;;0.70;;
15073;SDS011;7636;63.884;20.308;2023-01-24T04:46:27;1.10;;;0.70;;
15073;SDS011;7636;63.884;20.308;2023-01-24T04:48:54;2.13;;;0.80;;
15073;SDS011;7636;63.884;20.308;2023-01-24T04:51:21;2.70;;;1.00;;
15073;SDS011;7636;63.884;20.308;2023-01-24T04:53:48;2.33;;;1.20;;
15073;SDS011;7636;63.884;20.308;2023-01-24T04:56:14;2.47;;;0.90;;
15073;SDS011;7636;63.884;20.308;2023-01-24T04:58:41;2.47;;;1.27;;
15073;SDS011;7636;63.884;20.308;2023-01-24T05:01:07;2.60;;;0.77;;
15073;SDS011;7636;63.884;20.308;2023-01-24T05:03:34;1.30;;;1.00;;
15073;SDS011;7636;63.884;20.308;2023-01-24T05:06:01;2.30;;;1.00;;
15073;SDS011;7636;63.884;20.308;2023-01-24T05:08:27;2.87;;;1.23;;
15073;SDS011;7636;63.884;20.308;2023-01-24T05:10:54;2.37;;;1.10;;
15073;SDS011;7636;63.884;20.308;2023-01-24T05:13:21;1.97;;;0.90;;
15073;SDS011;7636;63.884;20.308;2023-01-24T05:15:48;4.00;;;0.73;;
15073;SDS011;7636;63.884;20.308;2023-01-24T05:18:15;2.10;;;0.77;;
15073;SDS011;7636;63.884;20.308;2023-01-24T05:20:41;5.33;;;1.10;;
15073;SDS011;7636;63.884;20.308;2023-01-24T05:23:08;2.27;;;0.73;;
15073;SDS011;7636;63.884;20.308;2023-01-24T05:25:35;2.63;;;0.97;;
15073;SDS011;7636;63.884;20.308;2023-01-24T05:28:01;1.10;;;0.77;;
15073;SDS011;7636;63.884;20.308;2023-01-24T05:30:28;1.63;;;0.80;;
15073;SDS011;7636;63.884;20.308;2023-01-24T05:32:56;0.60;;;0.60;;
15073;SDS011;7636;63.884;20.308;2023-01-24T05:35:23;0.93;;;0.53;;
15073;SDS011;7636;63.884;20.308;2023-01-24T05:37:51;1.77;;;0.90;;
15073;SDS011;7636;63.884;20.308;2023-01-24T05:40:17;2.27;;;1.20;;
15073;SDS011;7636;63.884;20.308;2023-01-24T05:42:44;2.63;;;1.00;;
15073;SDS011;7636;63.884;20.308;2023-01-24T05:45:10;2.50;;;0.80;;
15073;SDS011;7636;63.884;20.308;2023-01-24T05:47:37;3.43;;;0.80;;
15073;SDS011;7636;63.884;20.308;2023-01-24T05:50:24;2.53;;;0.90;;
15073;SDS011;7636;63.884;20.308;2023-01-24T05:52:50;1.77;;;0.83;;
15073;SDS011;7636;63.884;20.308;2023-01-24T05:55:17;2.80;;;1.20;;
15073;SDS011;7636;63.884;20.308;2023-01-24T05:57:43;1.50;;;0.80;;
15073;SDS011;7636;63.884;20.308;2023-01-24T06:00:10;1.80;;;1.03;;
15073;SDS011;7636;63.884;20.308;2023-01-24T06:02:37;1.97;;;1.10;;
15073;SDS011;7636;63.884;20.308;2023-01-24T06:05:04;1.00;;;0.70;;
15073;SDS011;7636;63.884;20.308;2023-01-24T06:07:31;2.13;;;0.70;;
15073;SDS011;7636;63.884;20.308;2023-01-24T06:09:57;1.67;;;0.90;;
15073;SDS011;7636;63.884;20.308;2023-01-24T06:12:24;2.73;;;0.83;;
15073;SDS011;7636;63.884;20.308;2023-01-24T06:14:50;1.20;;;0.70;;
15073;SDS011;7636;63.884;20.308;2023-01-24T06:17:17;1.80;;;0.70;;
15073;SDS011;7636;63.884;20.308;2023-01-24T06:19:44;2.30;;;1.20;;
15073;SDS011;7636;63.884;20.308;2023-01-24T06:22:21;0.77;;;0.70;;
15073;SDS011;7636;63.884;20.308;2023-01-24T06:24:54;1.70;;;0.80;;
15073;SDS011;7636;63.884;20.308;2023-01-24T06:27:21;1.60;;;0.83;;
15073;SDS011;7636;63.884;20.308;2023-01-24T06:29:48;1.40;;;0.70;;
15073;SDS011;7636;63.884;20.308;2023-01-24T06:32:22;1.33;;;0.90;;
15073;SDS011;7636;63.884;20.308;2023-01-24T06:37:37;2.17;;;0.77;;
15073;SDS011;7636;63.884;20.308;2023-01-24T06:40:18;3.73;;;0.93;;
15073;SDS011;7636;63.884;20.308;2023-01-24T06:42:47;2.40;;;0.77;;
15073;SDS011;7636;63.884;20.308;2023-01-24T06:45:14;2.80;;;0.97;;
15073;SDS011;7636;63.884;20.308;2023-01-24T06:47:41;2.90;;;0.90;;
15073;SDS011;7636;63.884;20.308;2023-01-24T06:50:16;2.30;;;0.90;;
15073;SDS011;7636;63.884;20.308;2023-01-24T06:52:45;1.30;;;0.80;;
15073;SDS011;7636;63.884;20.308;2023-01-24T06:55:13;3.27;;;0.77;;
15073;SDS011;7636;63.884;20.308;2023-01-24T06:57:40;0.87;;;0.60;;
15073;SDS011;7636;63.884;20.308;2023-01-24T07:00:07;2.50;;;0.80;;
15073;SDS011;7636;63.884;20.308;2023-01-24T07:02:35;0.93;;;0.60;;
15073;SDS011;7636;63.884;20.308;2023-01-24T07:05:02;1.80;;;0.70;;
15073;SDS011;7636;63.884;20.308;2023-01-24T07:07:28;2.60;;;1.07;;
15073;SDS011;7636;63.884;20.308;2023-01-24T07:09:55;2.37;;;0.63;;
15073;SDS011;7636;63.884;20.308;2023-01-24T07:12:21;0.60;;;0.60;;
15073;SDS011;7636;63.884;20.308;2023-01-24T07:14:48;1.47;;;0.80;;
15073;SDS011;7636;63.884;20.308;2023-01-24T07:17:15;1.93;;;0.77;;
15073;SDS011;7636;63.884;20.308;2023-01-24T07:19:41;1.63;;;0.80;;
15073;SDS011;7636;63.884;20.308;2023-01-24T07:22:12;1.47;;;0.43;;
15073;SDS011;7636;63.884;20.308;2023-01-24T07:24:39;1.57;;;0.80;;
15073;SDS011;7636;63.884;20.308;2023-01-24T07:27:07;0.97;;;0.60;;
15073;SDS011;7636;63.884;20.308;2023-01-24T07:29:33;2.57;;;0.60;;
15073;SDS011;7636;63.884;20.308;2023-01-24T07:32:00;1.50;;;0.90;;
15073;SDS011;7636;63.884;20.308;2023-01-24T07:34:27;2.13;;;0.73;;
15073;SDS011;7636;63.884;20.308;2023-01-24T07:36:53;1.43;;;0.90;;
15073;SDS011;7636;63.884;20.308;2023-01-24T07:39:20;2.67;;;1.17;;
15073;SDS011;7636;63.884;20.308;2023-01-24T07:41:47;3.20;;;1.07;;
15073;SDS011;7636;63.884;20.308;2023-01-24T07:44:13;1.70;;;0.90;;
15073;SDS011;7636;63.884;20.308;2023-01-24T07:46:40;1.80;;;0.90;;
15073;SDS011;7636;63.884;20.308;2023-01-24T07:49:06;1.70;;;0.90;;
15073;SDS011;7636;63.884;20.308;2023-01-24T07:51:33;1.63;;;0.60;;
15073;SDS011;7636;63.884;20.308;2023-01-24T07:54:00;1.60;;;0.77;;
15073;SDS011;7636;63.884;20.308;2023-01-24T07:56:27;1.43;;;0.77;;
15073;SDS011;7636;63.884;20.308;2023-01-24T07:58:53;4.77;;;1.73;;
15073;SDS011;7636;63.884;20.308;2023-01-24T08:01:22;2.83;;;2.00;;
15073;SDS011;7636;63.884;20.308;2023-01-24T08:03:49;2.20;;;1.63;;
15073;SDS011;7636;63.884;20.308;2023-01-24T08:06:16;1.73;;;0.87;;
15073;SDS011;7636;63.884;20.308;2023-01-24T08:08:44;2.43;;;1.37;;
15073;SDS011;7636;63.884;20.308;2023-01-24T08:11:11;3.80;;;1.80;;
15073;SDS011;7636;63.884;20.308;2023-01-24T08:13:39;3.13;;;1.53;;
15073;SDS011;7636;63.884;20.308;2023-01-24T08:16:06;1.80;;;0.87;;
15073;SDS011;7636;63.884;20.308;2023-01-24T08:18:33;2.40;;;1.13;;
15073;SDS011;7636;63.884;20.308;2023-01-24T08:21:00;1.67;;;1.20;;
15073;SDS011;7636;63.884;20.308;2023-01-24T08:23:27;3.00;;;1.30;;
15073;SDS011;7636;63.884;20.308;2023-01-24T08:25:56;1.33;;;1.17;;
15073;SDS011;7636;63.884;20.308;2023-01-24T08:28:23;1.40;;;0.83;;
15073;SDS011;7636;63.884;20.308;2023-01-24T08:30:50;3.83;;;1.40;;
15073;SDS011;7636;63.884;20.308;2023-01-24T08:33:16;3.17;;;1.50;;
15073;SDS011;7636;63.884;20.308;2023-01-24T08:35:46;2.33;;;1.50;;
15073;SDS011;7636;63.884;20.308;2023-01-24T08:38:13;1.60;;;0.90;;
15073;SDS011;7636;63.884;20.308;2023-01-24T08:40:41;1.67;;;1.10;;
